»·PEaware :: N461D KSNA-KSNA

N461D :: KSNA-KSNA

FLIGHT INFORMATION

Flight Status: Arrived
Operator: Privately registered:
United States
More flights under this callsign
Pilot: Daniel R. (17770)
Aircraft: CESSNA 172 SKYHAWK
(C172)
More flights by this aircraft type
Origin: KSNA John Wayne-Orange Co
United States
Destination: KSNA John Wayne-Orange Co
United States
More flights between these airports :: More routes between these airports
Route: SLI
File this flight plan on PilotEdge
Remarks: I-1 Rating
Altitude:
(Current/Filed)
3,000ft
Speed:
(Current/Filed)
120kts
Departed: 13-Jan-18 05:40 PM
Arrived: 13-Jan-18 06:04 PM
Distance/Time
Traveled:
0nm/0:24
Distance/Time
To Go:
Arrived

Flight Plot

Page will automatically refresh every two minutes.


Map Options




Map Legend


Flown Route
Filed Route
Departure Airport
Arrival Airport
Navaid (VOR, NDB)
Fix

Horizontal Profiles

Position Reports

Time Latitude Longitude Heading Altitude Ground
Speed
13-Jan-18 17:21 33.675429 -117.871460 218 60ft 0kts
13-Jan-18 17:22 33.675429 -117.871460 218 60ft 0kts
13-Jan-18 17:23 33.675429 -117.871460 218 60ft 0kts
13-Jan-18 17:24 33.675429 -117.871460 218 60ft 0kts
13-Jan-18 17:25 33.675429 -117.871460 218 60ft 0kts
13-Jan-18 17:26 33.675429 -117.871460 218 60ft 0kts
13-Jan-18 17:27 33.675429 -117.871460 218 60ft 0kts
13-Jan-18 17:28 33.675429 -117.871460 218 60ft 0kts
13-Jan-18 17:29 33.675429 -117.871460 218 60ft 0kts
13-Jan-18 17:30 33.675429 -117.871460 218 60ft 0kts
13-Jan-18 17:31 33.675429 -117.871460 218 60ft 0kts
13-Jan-18 17:32 33.675429 -117.871460 218 60ft 0kts
13-Jan-18 17:33 33.675429 -117.871460 218 60ft 0kts
13-Jan-18 17:34 33.675429 -117.871460 218 60ft 0kts
13-Jan-18 17:35 33.675429 -117.871460 218 60ft 0kts
13-Jan-18 17:36 33.675429 -117.871460 218 60ft 0kts
13-Jan-18 17:37 33.675429 -117.871460 218 60ft 0kts
13-Jan-18 17:38 33.675429 -117.871460 218 60ft 0kts
13-Jan-18 17:39 33.675429 -117.871460 218 60ft 0kts
13-Jan-18 17:40 33.675429 -117.871460 218 60ft 0kts
13-Jan-18 17:41 33.675429 -117.871460 218 60ft 0kts
13-Jan-18 17:42 33.676186 -117.870024 28 60ft 16kts
13-Jan-18 17:43 33.681281 -117.866371 111 60ft 1kts
13-Jan-18 17:44 33.681281 -117.866371 111 60ft 0kts
13-Jan-18 17:45 33.680762 -117.865629 168 60ft 14kts
13-Jan-18 17:46 33.668762 -117.877613 229 472ft 86kts
13-Jan-18 17:47 33.653570 -117.902823 230 1174ft 98kts
13-Jan-18 17:48 33.637743 -117.930009 230 1874ft 100kts
13-Jan-18 17:49 33.621493 -117.958607 230 2475ft 106kts
13-Jan-18 17:50 33.604361 -117.988521 230 2993ft 117kts
13-Jan-18 17:51 33.590873 -118.023110 293 2995ft 121kts
13-Jan-18 17:52 33.617200 -118.024314 30 2999ft 105kts
13-Jan-18 17:53 33.643951 -118.008048 30 3000ft 112kts
13-Jan-18 17:54 33.672566 -117.990586 30 2999ft 117kts
13-Jan-18 17:55 33.701787 -117.972717 30 2999ft 119kts
13-Jan-18 17:56 33.731504 -117.954391 30 2998ft 122kts
13-Jan-18 17:57 33.761990 -117.934558 30 3000ft 126kts
13-Jan-18 17:58 33.792899 -117.914033 30 3000ft 127kts
13-Jan-18 17:59 33.823774 -117.893551 30 3000ft 127kts
13-Jan-18 18:00 33.849321 -117.866791 60 3000ft 122kts
13-Jan-18 18:01 33.867558 -117.832084 60 3001ft 120kts
13-Jan-18 18:02 33.884524 -117.798735 68 3003ft 114kts
13-Jan-18 18:03 33.865411 -117.773962 175 3007ft 120kts
13-Jan-18 18:04 33.832248 -117.777444 180 3011ft 119kts
13-Jan-18 18:05 33.801811 -117.788710 204 2875ft 118kts
13-Jan-18 18:06 33.770182 -117.808778 206 2094ft 124kts
13-Jan-18 18:07 33.738851 -117.828704 207 1353ft 128kts
13-Jan-18 18:08 33.707703 -117.848515 207 663ft 112kts
13-Jan-18 18:09 33.688711 -117.860532 206 257ft 64kts
13-Jan-18 18:10 33.675749 -117.869142 275 60ft 16kts
13-Jan-18 18:11 33.675893 -117.870885 215 60ft 0kts
13-Jan-18 18:12 33.675893 -117.870885 215 60ft 0kts
13-Jan-18 18:13 33.675893 -117.870885 215 60ft 0kts
13-Jan-18 18:14 33.675893 -117.870885 215 60ft 0kts
13-Jan-18 18:15 33.675893 -117.870885 215 60ft 0kts
13-Jan-18 18:16 33.675893 -117.870885 215 60ft 0kts
13-Jan-18 18:17 33.675893 -117.870885 215 60ft 0kts
13-Jan-18 18:18 33.675893 -117.870885 215 60ft 0kts
13-Jan-18 18:19 33.675893 -117.870885 215 60ft 0kts

Navigation Log

Ident Type
Flight plan parsing failed, navigation log unavailable